CheckWX is a tool to help pilots better visualize weather data.  It is not intended as a substitute for an official pre-flight weather briefing.

10:38:00 UTC

KCGI METAR
Cape Girardeau Regional Airport
Cape Girardeau, Missouri, USA
Current

45 mins ago

KCGI 220953Z AUTO 19008KT 10SM CLR 22/16 A3007 RMK AO2 SLP179 T02170156
Observed
Sep-22 @ 09:53 UTC
Wind
  • 190° at 8 KTS
Visibility
10 SM
Flight Rules
VFR
Cloud Levels
  • Clear skies
Temperature
22°C / 72°F
Dewpoint
16°C / 61°F
Humidity
69%
Altimeter
30.07" Hg
Pressure
1018.32 hPa
Previous

2 hours ago

KCGI 220853Z AUTO 19008KT 10SM CLR 22/16 A3007 RMK AO2 SLP180 T02220156 58001
Observed
Sep-22 @ 08:53 UTC
Wind
  • 190° at 8 KTS
Visibility
10 SM
Flight Rules
VFR
Cloud Levels
  • Clear skies
Temperature
22°C / 72°F
Dewpoint
16°C / 61°F
Humidity
69%
Altimeter
30.07" Hg
Pressure
1018.32 hPa
Previous

3 hours ago

KCGI 220753Z AUTO 19006KT 10SM CLR 22/16 A3008 RMK AO2 SLP182 T02170156
Observed
Sep-22 @ 07:53 UTC
Wind
  • 190° at 6 KTS
Visibility
10 SM
Flight Rules
VFR
Cloud Levels
  • Clear skies
Temperature
22°C / 72°F
Dewpoint
16°C / 61°F
Humidity
69%
Altimeter
30.08" Hg
Pressure
1018.62 hPa